This is the latest recevied weather packets stored in our database for station/object HB9HJL-11. If no packets are shown the sender has not sent any weather packets the latest 1 day(s).
| Time | Temp. | Humidity | Pressure | Rain* | Wind** | Luminosity | Snow |
|---|---|---|---|---|---|---|---|
| 1778237346 | 18.89° C | 47% | 923 hPa | - | - | - | - |
| 1778236446 | 21.11° C | 46% | 925 hPa | - | - | - | - |
| 1778235546 | 20° C | 49% | 928 hPa | - | - | - | - |
| 1778234646 | 19.44° C | 51% | 930 hPa | - | - | - | - |
| 1778233745 | 18.89° C | 52% | 930 hPa | - | - | - | - |
| 1778232845 | 17.22° C | 56% | 933 hPa | - | - | - | - |
| 1778231945 | 17.78° C | 56% | 932 hPa | - | - | - | - |
| 1778231045 | 17.78° C | 59% | 935 hPa | - | - | - | - |
| 1778230145 | 17.22° C | 62% | 938 hPa | - | - | - | - |
| 1778229245 | 16.67° C | 63% | 938 hPa | - | - | - | - |
| 1778228345 | 16.11° C | 64% | 939 hPa | - | - | - | - |
| 1778227445 | 15.56° C | 68% | 942 hPa | - | - | - | - |
| 1778226544 | 13.33° C | 71% | 942 hPa | - | - | - | - |
| 1778225643 | 13.89° C | 72% | 944 hPa | - | - | - | - |
| 1778224744 | 12.22° C | 75% | 945 hPa | - | - | - | - |
| 1778223843 | 10.56° C | 79% | 947 hPa | - | - | - | - |
| 1778222943 | 10.56° C | 79% | 947 hPa | - | - | - | - |
| 1778222043 | 9.44° C | 83% | 948 hPa | - | - | - | - |
| 1778221143 | 9.44° C | 85% | 949 hPa | - | - | - | - |
| 1778220243 | 7.78° C | 87% | 949 hPa | - | - | - | - |
| 1778219343 | 7.78° C | 87% | 949 hPa | - | - | - | - |
| 1778218443 | 7.22° C | 90% | 950 hPa | - | - | - | - |
| 1778217543 | 6.11° C | 93% | 950 hPa | - | - | - | - |
| 1778216643 | 6.11° C | 93% | 951 hPa | - | - | - | - |
| 1778215742 | 5.56° C | 94% | 951 hPa | - | - | - | - |
* Rain since midnight (hover to see other rain measurements)
** Current wind speed in m/s (hover to see current wind gust speed)